Main page
METAR-TAF:

METAR-TAF

Airports :

Bozeman Yellowstone International Airport

Bozeman, Montana, United States

latitude: 45-47-17N, longitude: 111-09-39W, elevation: 4474 ft

Current weather observation

The report was made 47 minutes ago, at 12:56 UTC
Wind 8 mph from the Southeast
Temperature 1°F
Humidity 77%
Pressure 30.16 in. Hg
Visibility: 10 miles
Clear sky

METAR: KBZN 031256Z 14007KT 10SM CLR M17/M20 A3016 RMK AO2 SLP299 T11671200

Time: 06:43 (13:43 UTC)

Forecast

The report was made 2 hours and 21 minutes ago, at 11:22 UTC
Forecast valid from 03 at 12 UTC to 04 at 18 UTC
Wind 7 mph from variable directions
Visibility: 6 miles
Few clouds at a height of 24000 ft
From 03 at 1400 UTC
Wind 10 mph from the South/Southeast
Visibility: 6 miles
Few clouds at a height of 24000 ft
From 04 at 1300 UTC
Wind 7 mph from variable directions
Visibility: 6 miles
Broken clouds at a height of 16000 ft

TAF: KBZN 031122Z 0312/0418 VRB06KT P6SM FEW240 FM031400 15009KT P6SM FEW240 FM041300 VRB06KT P6SM BKN160

Weather observations and forecasts of more than 4000 airports (METAR and TAF reports).

The available stations are represented by yellow and red dots on the map.

Hover mouse over dot to see the name of the station.

Then click to see weather observations and forecasts.

To change the map : click on the green buttons with a black cross to zoom in, on the green button with a dash to zoom out, or on the green arrows for adjacent maps.


METAR-TAF: